sensor_id;sensor_type;location;lat;lon;timestamp;P1;durP1;ratioP1;P2;durP2;ratioP2
64467;SDS011;50853;46.836;16.820;2022-12-24T05:06:00;4.85;;;2.90;;
64467;SDS011;50853;46.836;16.820;2022-12-24T05:08:26;4.65;;;2.85;;
64467;SDS011;50853;46.836;16.820;2022-12-24T05:10:55;10.18;;;3.05;;
64467;SDS011;50853;46.836;16.820;2022-12-24T05:13:24;5.15;;;3.50;;
64467;SDS011;50853;46.836;16.820;2022-12-24T05:15:50;6.60;;;4.25;;
64467;SDS011;50853;46.836;16.820;2022-12-24T05:18:16;7.35;;;4.40;;
64467;SDS011;50853;46.836;16.820;2022-12-24T05:20:42;6.05;;;3.78;;
64467;SDS011;50853;46.836;16.820;2022-12-24T05:23:10;6.77;;;4.27;;
64467;SDS011;50853;46.836;16.820;2022-12-24T05:25:59;6.93;;;4.13;;
64467;SDS011;50853;46.836;16.820;2022-12-24T05:28:43;7.93;;;6.03;;
64467;SDS011;50853;46.836;16.820;2022-12-24T05:31:09;5.50;;;4.13;;
64467;SDS011;50853;46.836;16.820;2022-12-24T05:33:35;5.10;;;4.23;;
64467;SDS011;50853;46.836;16.820;2022-12-24T05:36:01;6.00;;;3.78;;
64467;SDS011;50853;46.836;16.820;2022-12-24T05:38:27;6.93;;;4.00;;
64467;SDS011;50853;46.836;16.820;2022-12-24T05:40:54;8.73;;;3.97;;
64467;SDS011;50853;46.836;16.820;2022-12-24T05:43:20;5.57;;;3.40;;
64467;SDS011;50853;46.836;16.820;2022-12-24T05:45:46;5.20;;;3.93;;
64467;SDS011;50853;46.836;16.820;2022-12-24T05:48:12;4.95;;;3.63;;
64467;SDS011;50853;46.836;16.820;2022-12-24T05:50:39;7.35;;;3.92;;
64467;SDS011;50853;46.836;16.820;2022-12-24T05:53:06;5.00;;;3.70;;
64467;SDS011;50853;46.836;16.820;2022-12-24T05:55:32;5.90;;;3.50;;
64467;SDS011;50853;46.836;16.820;2022-12-24T05:57:58;5.30;;;3.60;;
64467;SDS011;50853;46.836;16.820;2022-12-24T06:00:25;6.22;;;3.47;;
64467;SDS011;50853;46.836;16.820;2022-12-24T06:02:51;5.97;;;3.60;;
64467;SDS011;50853;46.836;16.820;2022-12-24T06:05:17;5.10;;;3.20;;
64467;SDS011;50853;46.836;16.820;2022-12-24T06:07:42;5.33;;;3.90;;
64467;SDS011;50853;46.836;16.820;2022-12-24T06:10:09;5.65;;;4.50;;
64467;SDS011;50853;46.836;16.820;2022-12-24T06:15:58;6.75;;;4.00;;
64467;SDS011;50853;46.836;16.820;2022-12-24T06:24:34;5.65;;;3.92;;
64467;SDS011;50853;46.836;16.820;2022-12-24T06:27:00;5.40;;;3.85;;
64467;SDS011;50853;46.836;16.820;2022-12-24T06:29:26;6.50;;;3.70;;
64467;SDS011;50853;46.836;16.820;2022-12-24T06:31:54;5.47;;;3.90;;
64467;SDS011;50853;46.836;16.820;2022-12-24T06:34:20;4.75;;;3.80;;
64467;SDS011;50853;46.836;16.820;2022-12-24T06:36:46;5.40;;;3.72;;
64467;SDS011;50853;46.836;16.820;2022-12-24T06:39:12;5.57;;;3.60;;
64467;SDS011;50853;46.836;16.820;2022-12-24T06:41:38;9.27;;;4.03;;
64467;SDS011;50853;46.836;16.820;2022-12-24T06:44:04;6.38;;;3.55;;
64467;SDS011;50853;46.836;16.820;2022-12-24T06:46:30;4.85;;;2.65;;
64467;SDS011;50853;46.836;16.820;2022-12-24T06:48:56;7.80;;;3.40;;
64467;SDS011;50853;46.836;16.820;2022-12-24T06:51:22;5.43;;;3.23;;
64467;SDS011;50853;46.836;16.820;2022-12-24T06:53:48;6.18;;;4.50;;
64467;SDS011;50853;46.836;16.820;2022-12-24T06:56:18;5.60;;;4.07;;
64467;SDS011;50853;46.836;16.820;2022-12-24T06:58:44;7.28;;;4.57;;
64467;SDS011;50853;46.836;16.820;2022-12-24T07:01:11;6.97;;;4.40;;
64467;SDS011;50853;46.836;16.820;2022-12-24T07:03:39;6.40;;;4.10;;
64467;SDS011;50853;46.836;16.820;2022-12-24T07:06:05;10.13;;;4.10;;
64467;SDS011;50853;46.836;16.820;2022-12-24T07:08:32;6.88;;;3.50;;
64467;SDS011;50853;46.836;16.820;2022-12-24T07:11:00;8.82;;;4.05;;
64467;SDS011;50853;46.836;16.820;2022-12-24T07:13:26;8.38;;;3.90;;
64467;SDS011;50853;46.836;16.820;2022-12-24T07:16:00;10.13;;;3.67;;
64467;SDS011;50853;46.836;16.820;2022-12-24T07:18:27;6.40;;;3.63;;
64467;SDS011;50853;46.836;16.820;2022-12-24T07:20:54;6.28;;;3.78;;
64467;SDS011;50853;46.836;16.820;2022-12-24T07:23:20;5.68;;;3.85;;
64467;SDS011;50853;46.836;16.820;2022-12-24T07:25:46;5.53;;;2.90;;
64467;SDS011;50853;46.836;16.820;2022-12-24T07:28:12;5.27;;;3.40;;
64467;SDS011;50853;46.836;16.820;2022-12-24T07:30:38;6.87;;;3.83;;
64467;SDS011;50853;46.836;16.820;2022-12-24T07:33:04;6.03;;;4.10;;
64467;SDS011;50853;46.836;16.820;2022-12-24T07:35:30;5.97;;;4.17;;
64467;SDS011;50853;46.836;16.820;2022-12-24T07:37:56;7.90;;;3.95;;
64467;SDS011;50853;46.836;16.820;2022-12-24T07:40:21;7.23;;;4.00;;
64467;SDS011;50853;46.836;16.820;2022-12-24T07:42:47;7.13;;;4.03;;
64467;SDS011;50853;46.836;16.820;2022-12-24T07:45:13;9.70;;;4.07;;
64467;SDS011;50853;46.836;16.820;2022-12-24T07:47:39;7.38;;;3.97;;
64467;SDS011;50853;46.836;16.820;2022-12-24T07:50:05;6.70;;;4.00;;
64467;SDS011;50853;46.836;16.820;2022-12-24T07:52:31;5.25;;;3.80;;
64467;SDS011;50853;46.836;16.820;2022-12-24T07:54:57;8.23;;;4.10;;
64467;SDS011;50853;46.836;16.820;2022-12-24T07:57:23;5.50;;;3.97;;
64467;SDS011;50853;46.836;16.820;2022-12-24T07:59:49;6.87;;;4.47;;
64467;SDS011;50853;46.836;16.820;2022-12-24T08:02:14;8.90;;;4.50;;
64467;SDS011;50853;46.836;16.820;2022-12-24T08:04:40;5.57;;;3.97;;
64467;SDS011;50853;46.836;16.820;2022-12-24T08:07:07;7.55;;;4.18;;
64467;SDS011;50853;46.836;16.820;2022-12-24T08:09:33;7.25;;;3.88;;
64467;SDS011;50853;46.836;16.820;2022-12-24T08:14:29;5.93;;;4.38;;
64467;SDS011;50853;46.836;16.820;2022-12-24T08:16:55;9.10;;;4.57;;
64467;SDS011;50853;46.836;16.820;2022-12-24T08:19:21;5.75;;;4.38;;
64467;SDS011;50853;46.836;16.820;2022-12-24T08:21:47;6.63;;;4.70;;
64467;SDS011;50853;46.836;16.820;2022-12-24T08:24:13;6.30;;;4.40;;
64467;SDS011;50853;46.836;16.820;2022-12-24T08:26:39;6.43;;;4.23;;
64467;SDS011;50853;46.836;16.820;2022-12-24T08:29:06;6.43;;;4.50;;
64467;SDS011;50853;46.836;16.820;2022-12-24T08:31:32;5.45;;;4.30;;
64467;SDS011;50853;46.836;16.820;2022-12-24T08:34:04;9.48;;;4.57;;
64467;SDS011;50853;46.836;16.820;2022-12-24T08:36:32;6.13;;;4.15;;
64467;SDS011;50853;46.836;16.820;2022-12-24T08:38:59;7.07;;;4.43;;
64467;SDS011;50853;46.836;16.820;2022-12-24T08:41:28;6.05;;;4.22;;
64467;SDS011;50853;46.836;16.820;2022-12-24T08:43:55;9.40;;;4.63;;
64467;SDS011;50853;46.836;16.820;2022-12-24T08:46:20;6.87;;;5.07;;
64467;SDS011;50853;46.836;16.820;2022-12-24T08:48:46;9.10;;;5.37;;
64467;SDS011;50853;46.836;16.820;2022-12-24T08:51:12;12.37;;;6.83;;
64467;SDS011;50853;46.836;16.820;2022-12-24T08:53:38;12.10;;;6.57;;
64467;SDS011;50853;46.836;16.820;2022-12-24T08:56:05;9.60;;;7.03;;
64467;SDS011;50853;46.836;16.820;2022-12-24T08:58:33;12.13;;;7.10;;
64467;SDS011;50853;46.836;16.820;2022-12-24T09:00:59;14.73;;;7.63;;
64467;SDS011;50853;46.836;16.820;2022-12-24T09:03:26;9.48;;;7.40;;
64467;SDS011;50853;46.836;16.820;2022-12-24T09:05:52;9.38;;;6.93;;
64467;SDS011;50853;46.836;16.820;2022-12-24T09:08:18;12.10;;;7.93;;
64467;SDS011;50853;46.836;16.820;2022-12-24T09:10:45;12.00;;;7.60;;
64467;SDS011;50853;46.836;16.820;2022-12-24T09:13:11;14.03;;;7.37;;
64467;SDS011;50853;46.836;16.820;2022-12-24T09:15:37;8.93;;;7.23;;
64467;SDS011;50853;46.836;16.820;2022-12-24T09:18:03;7.87;;;6.10;;
64467;SDS011;50853;46.836;16.820;2022-12-24T09:20:29;8.03;;;6.17;;
64467;SDS011;50853;46.836;16.820;2022-12-24T09:22:54;9.33;;;6.33;;
64467;SDS011;50853;46.836;16.820;2022-12-24T09:25:20;12.00;;;6.70;;
64467;SDS011;50853;46.836;16.820;2022-12-24T09:27:46;11.53;;;6.37;;
64467;SDS011;50853;46.836;16.820;2022-12-24T09:30:12;15.60;;;6.77;;
64467;SDS011;50853;46.836;16.820;2022-12-24T09:32:38;9.75;;;6.72;;
64467;SDS011;50853;46.836;16.820;2022-12-24T09:35:04;10.93;;;6.33;;
64467;SDS011;50853;46.836;16.820;2022-12-24T09:37:30;13.30;;;6.05;;
64467;SDS011;50853;46.836;16.820;2022-12-24T09:39:56;11.17;;;7.30;;
64467;SDS011;50853;46.836;16.820;2022-12-24T09:45:18;12.35;;;7.00;;
64467;SDS011;50853;46.836;16.820;2022-12-24T09:47:47;14.35;;;6.63;;
64467;SDS011;50853;46.836;16.820;2022-12-24T09:53:17;25.90;;;8.60;;
64467;SDS011;50853;46.836;16.820;2022-12-24T09:55:51;28.40;;;8.50;;
64467;SDS011;50853;46.836;16.820;2022-12-24T09:58:30;25.58;;;8.65;;
64467;SDS011;50853;46.836;16.820;2022-12-24T10:00:59;34.70;;;11.27;;
64467;SDS011;50853;46.836;16.820;2022-12-24T10:03:25;43.43;;;16.70;;
64467;SDS011;50853;46.836;16.820;2022-12-24T10:11:29;36.60;;;14.27;;
64467;SDS011;50853;46.836;16.820;2022-12-24T10:16:31;34.45;;;14.38;;
64467;SDS011;50853;46.836;16.820;2022-12-24T10:19:02;40.03;;;14.48;;
64467;SDS011;50853;46.836;16.820;2022-12-24T10:21:54;34.28;;;13.00;;
64467;SDS011;50853;46.836;16.820;2022-12-24T10:24:36;28.05;;;13.68;;
64467;SDS011;50853;46.836;16.820;2022-12-24T10:27:14;26.75;;;13.10;;
64467;SDS011;50853;46.836;16.820;2022-12-24T10:29:44;29.15;;;13.35;;
64467;SDS011;50853;46.836;16.820;2022-12-24T10:32:20;28.38;;;13.30;;
64467;SDS011;50853;46.836;16.820;2022-12-24T10:37:44;61.75;;;14.60;;
64467;SDS011;50853;46.836;16.820;2022-12-24T10:40:57;37.58;;;12.52;;
64467;SDS011;50853;46.836;16.820;2022-12-24T10:43:22;31.63;;;12.13;;
64467;SDS011;50853;46.836;16.820;2022-12-24T10:45:51;20.60;;;11.52;;
64467;SDS011;50853;46.836;16.820;2022-12-24T10:50:59;29.85;;;12.07;;
64467;SDS011;50853;46.836;16.820;2022-12-24T10:53:42;33.50;;;12.15;;
64467;SDS011;50853;46.836;16.820;2022-12-24T10:56:14;23.17;;;11.43;;
64467;SDS011;50853;46.836;16.820;2022-12-24T10:58:42;23.02;;;11.45;;
64467;SDS011;50853;46.836;16.820;2022-12-24T11:01:09;20.80;;;11.25;;
64467;SDS011;50853;46.836;16.820;2022-12-24T11:03:36;18.25;;;10.73;;
64467;SDS011;50853;46.836;16.820;2022-12-24T11:06:07;26.20;;;12.40;;
64467;SDS011;50853;46.836;16.820;2022-12-24T11:08:39;23.42;;;11.75;;
64467;SDS011;50853;46.836;16.820;2022-12-24T11:11:13;30.40;;;11.20;;
64467;SDS011;50853;46.836;16.820;2022-12-24T11:19:05;19.15;;;10.77;;
64467;SDS011;50853;46.836;16.820;2022-12-24T11:21:41;23.70;;;10.52;;
64467;SDS011;50853;46.836;16.820;2022-12-24T11:26:36;18.30;;;10.68;;
64467;SDS011;50853;46.836;16.820;2022-12-24T11:31:48;22.50;;;10.85;;
64467;SDS011;50853;46.836;16.820;2022-12-24T11:36:53;22.93;;;11.87;;
64467;SDS011;50853;46.836;16.820;2022-12-24T11:39:39;17.92;;;10.52;;
64467;SDS011;50853;46.836;16.820;2022-12-24T11:42:06;19.48;;;10.35;;
64467;SDS011;50853;46.836;16.820;2022-12-24T11:44:47;21.17;;;11.38;;
64467;SDS011;50853;46.836;16.820;2022-12-24T11:47:14;17.65;;;10.77;;
64467;SDS011;50853;46.836;16.820;2022-12-24T11:49:40;27.63;;;11.43;;
64467;SDS011;50853;46.836;16.820;2022-12-24T11:54:55;19.05;;;9.75;;
64467;SDS011;50853;46.836;16.820;2022-12-24T12:00:38;24.67;;;11.00;;
64467;SDS011;50853;46.836;16.820;2022-12-24T12:05:39;19.52;;;10.90;;
64467;SDS011;50853;46.836;16.820;2022-12-24T12:08:15;27.57;;;10.47;;
64467;SDS011;50853;46.836;16.820;2022-12-24T12:10:44;45.08;;;10.57;;
64467;SDS011;50853;46.836;16.820;2022-12-24T12:13:13;31.45;;;11.13;;
64467;SDS011;50853;46.836;16.820;2022-12-24T12:18:37;33.42;;;11.63;;
64467;SDS011;50853;46.836;16.820;2022-12-24T12:21:07;39.78;;;11.02;;
64467;SDS011;50853;46.836;16.820;2022-12-24T12:24:02;26.02;;;10.95;;
64467;SDS011;50853;46.836;16.820;2022-12-24T12:26:29;26.38;;;12.40;;
64467;SDS011;50853;46.836;16.820;2022-12-24T12:29:13;28.60;;;12.15;;
64467;SDS011;50853;46.836;16.820;2022-12-24T12:32:09;17.88;;;11.20;;
64467;SDS011;50853;46.836;16.820;2022-12-24T12:35:01;26.65;;;11.85;;
64467;SDS011;50853;46.836;16.820;2022-12-24T12:37:42;18.33;;;11.60;;
64467;SDS011;50853;46.836;16.820;2022-12-24T12:40:13;19.15;;;11.63;;
64467;SDS011;50853;46.836;16.820;2022-12-24T12:42:41;19.25;;;10.75;;
64467;SDS011;50853;46.836;16.820;2022-12-24T12:56:11;21.85;;;11.88;;
64467;SDS011;50853;46.836;16.820;2022-12-24T12:58:40;25.85;;;11.90;;
64467;SDS011;50853;46.836;16.820;2022-12-24T13:12:53;16.08;;;10.95;;
64467;SDS011;50853;46.836;16.820;2022-12-24T13:21:22;17.77;;;10.43;;
64467;SDS011;50853;46.836;16.820;2022-12-24T13:23:53;19.95;;;10.50;;
64467;SDS011;50853;46.836;16.820;2022-12-24T13:26:41;16.08;;;9.77;;
64467;SDS011;50853;46.836;16.820;2022-12-24T13:29:30;21.65;;;10.40;;
64467;SDS011;50853;46.836;16.820;2022-12-24T13:34:48;15.93;;;10.10;;
64467;SDS011;50853;46.836;16.820;2022-12-24T13:37:20;13.43;;;10.32;;
64467;SDS011;50853;46.836;16.820;2022-12-24T13:40:01;16.40;;;10.23;;
64467;SDS011;50853;46.836;16.820;2022-12-24T13:47:53;18.45;;;9.48;;
64467;SDS011;50853;46.836;16.820;2022-12-24T13:52:51;16.23;;;9.38;;
64467;SDS011;50853;46.836;16.820;2022-12-24T13:55:18;12.68;;;9.07;;
64467;SDS011;50853;46.836;16.820;2022-12-24T14:02:56;20.58;;;9.82;;
64467;SDS011;50853;46.836;16.820;2022-12-24T14:05:33;18.95;;;10.18;;
64467;SDS011;50853;46.836;16.820;2022-12-24T14:08:08;16.63;;;10.32;;
64467;SDS011;50853;46.836;16.820;2022-12-24T14:10:44;15.43;;;9.90;;
64467;SDS011;50853;46.836;16.820;2022-12-24T14:16:04;24.55;;;10.57;;
64467;SDS011;50853;46.836;16.820;2022-12-24T14:18:36;15.85;;;9.75;;
64467;SDS011;50853;46.836;16.820;2022-12-24T14:21:05;14.15;;;9.40;;
64467;SDS011;50853;46.836;16.820;2022-12-24T14:26:12;13.60;;;9.48;;
64467;SDS011;50853;46.836;16.820;2022-12-24T14:31:48;16.30;;;9.65;;
64467;SDS011;50853;46.836;16.820;2022-12-24T14:34:18;12.93;;;9.60;;
64467;SDS011;50853;46.836;16.820;2022-12-24T14:36:44;13.60;;;9.40;;
64467;SDS011;50853;46.836;16.820;2022-12-24T14:39:15;15.63;;;9.75;;
64467;SDS011;50853;46.836;16.820;2022-12-24T14:45:05;19.02;;;9.85;;
64467;SDS011;50853;46.836;16.820;2022-12-24T14:47:34;12.75;;;9.45;;
64467;SDS011;50853;46.836;16.820;2022-12-24T14:50:24;15.82;;;9.35;;
64467;SDS011;50853;46.836;16.820;2022-12-24T14:56:19;14.68;;;9.15;;
64467;SDS011;50853;46.836;16.820;2022-12-24T14:58:49;13.48;;;9.95;;
64467;SDS011;50853;46.836;16.820;2022-12-24T15:03:58;14.95;;;9.80;;
64467;SDS011;50853;46.836;16.820;2022-12-24T15:06:26;15.13;;;10.07;;
64467;SDS011;50853;46.836;16.820;2022-12-24T15:08:53;17.65;;;10.38;;
64467;SDS011;50853;46.836;16.820;2022-12-24T15:11:20;24.90;;;17.48;;
64467;SDS011;50853;46.836;16.820;2022-12-24T15:13:51;31.98;;;16.80;;
64467;SDS011;50853;46.836;16.820;2022-12-24T15:16:27;23.88;;;14.63;;
64467;SDS011;50853;46.836;16.820;2022-12-24T15:19:00;21.25;;;14.02;;
64467;SDS011;50853;46.836;16.820;2022-12-24T15:21:36;22.83;;;14.52;;
64467;SDS011;50853;46.836;16.820;2022-12-24T15:26:59;19.60;;;13.65;;
64467;SDS011;50853;46.836;16.820;2022-12-24T15:29:28;20.63;;;13.40;;
64467;SDS011;50853;46.836;16.820;2022-12-24T15:31:57;18.85;;;13.55;;
64467;SDS011;50853;46.836;16.820;2022-12-24T15:37:05;15.02;;;12.38;;
64467;SDS011;50853;46.836;16.820;2022-12-24T15:39:36;17.65;;;12.85;;
64467;SDS011;50853;46.836;16.820;2022-12-24T15:42:03;19.05;;;12.27;;
64467;SDS011;50853;46.836;16.820;2022-12-24T15:44:37;19.00;;;13.45;;
64467;SDS011;50853;46.836;16.820;2022-12-24T15:47:07;17.33;;;12.98;;
64467;SDS011;50853;46.836;16.820;2022-12-24T15:49:45;20.60;;;13.60;;
64467;SDS011;50853;46.836;16.820;2022-12-24T15:52:14;17.98;;;13.05;;
64467;SDS011;50853;46.836;16.820;2022-12-24T15:54:45;18.20;;;13.65;;
64467;SDS011;50853;46.836;16.820;2022-12-24T15:57:22;20.50;;;13.15;;
64467;SDS011;50853;46.836;16.820;2022-12-24T15:59:52;18.85;;;13.35;;
64467;SDS011;50853;46.836;16.820;2022-12-24T16:02:33;18.80;;;13.00;;
64467;SDS011;50853;46.836;16.820;2022-12-24T16:05:23;17.25;;;12.55;;
64467;SDS011;50853;46.836;16.820;2022-12-24T16:07:59;16.98;;;12.25;;
64467;SDS011;50853;46.836;16.820;2022-12-24T16:10:31;16.55;;;12.30;;
64467;SDS011;50853;46.836;16.820;2022-12-24T16:12:59;24.33;;;13.60;;
64467;SDS011;50853;46.836;16.820;2022-12-24T16:15:25;28.42;;;12.93;;
64467;SDS011;50853;46.836;16.820;2022-12-24T16:17:51;19.37;;;12.77;;
64467;SDS011;50853;46.836;16.820;2022-12-24T16:20:20;23.10;;;13.27;;
64467;SDS011;50853;46.836;16.820;2022-12-24T16:22:47;22.13;;;12.38;;
64467;SDS011;50853;46.836;16.820;2022-12-24T16:27:49;20.63;;;12.95;;
64467;SDS011;50853;46.836;16.820;2022-12-24T16:30:15;22.37;;;12.80;;
64467;SDS011;50853;46.836;16.820;2022-12-24T16:32:42;21.85;;;12.45;;
64467;SDS011;50853;46.836;16.820;2022-12-24T16:35:23;19.38;;;12.63;;
64467;SDS011;50853;46.836;16.820;2022-12-24T16:37:52;16.70;;;12.23;;
64467;SDS011;50853;46.836;16.820;2022-12-24T16:40:19;19.20;;;13.70;;
64467;SDS011;50853;46.836;16.820;2022-12-24T16:42:46;18.27;;;13.60;;
64467;SDS011;50853;46.836;16.820;2022-12-24T16:45:30;16.08;;;12.15;;
64467;SDS011;50853;46.836;16.820;2022-12-24T16:48:01;22.52;;;12.65;;
64467;SDS011;50853;46.836;16.820;2022-12-24T16:50:29;19.92;;;12.25;;
64467;SDS011;50853;46.836;16.820;2022-12-24T16:52:55;16.87;;;11.77;;
64467;SDS011;50853;46.836;16.820;2022-12-24T16:55:21;20.70;;;12.00;;
64467;SDS011;50853;46.836;16.820;2022-12-24T16:57:47;17.65;;;11.88;;
64467;SDS011;50853;46.836;16.820;2022-12-24T17:00:14;20.23;;;11.73;;
64467;SDS011;50853;46.836;16.820;2022-12-24T17:02:42;16.30;;;11.98;;
64467;SDS011;50853;46.836;16.820;2022-12-24T17:05:08;18.65;;;12.60;;
64467;SDS011;50853;46.836;16.820;2022-12-24T17:07:35;22.48;;;11.85;;
64467;SDS011;50853;46.836;16.820;2022-12-24T17:10:01;15.30;;;11.50;;
64467;SDS011;50853;46.836;16.820;2022-12-24T17:12:27;19.93;;;12.23;;
64467;SDS011;50853;46.836;16.820;2022-12-24T17:14:53;19.90;;;12.63;;
64467;SDS011;50853;46.836;16.820;2022-12-24T17:17:26;15.70;;;11.50;;
64467;SDS011;50853;46.836;16.820;2022-12-24T17:19:53;19.88;;;11.25;;
64467;SDS011;50853;46.836;16.820;2022-12-24T17:22:20;15.70;;;11.45;;
64467;SDS011;50853;46.836;16.820;2022-12-24T17:24:47;18.38;;;11.85;;
64467;SDS011;50853;46.836;16.820;2022-12-24T17:27:13;18.40;;;11.70;;
64467;SDS011;50853;46.836;16.820;2022-12-24T17:29:39;17.08;;;12.50;;
64467;SDS011;50853;46.836;16.820;2022-12-24T17:32:05;22.10;;;12.25;;
64467;SDS011;50853;46.836;16.820;2022-12-24T17:34:31;17.33;;;11.40;;
64467;SDS011;50853;46.836;16.820;2022-12-24T17:36:57;15.88;;;11.45;;
64467;SDS011;50853;46.836;16.820;2022-12-24T17:39:25;26.20;;;11.70;;
64467;SDS011;50853;46.836;16.820;2022-12-24T17:41:51;25.55;;;11.43;;
64467;SDS011;50853;46.836;16.820;2022-12-24T17:44:17;16.77;;;10.80;;
64467;SDS011;50853;46.836;16.820;2022-12-24T17:46:44;16.58;;;11.40;;
64467;SDS011;50853;46.836;16.820;2022-12-24T17:51:36;17.10;;;11.77;;
64467;SDS011;50853;46.836;16.820;2022-12-24T17:54:03;18.30;;;11.30;;
64467;SDS011;50853;46.836;16.820;2022-12-24T17:56:29;16.92;;;12.20;;
64467;SDS011;50853;46.836;16.820;2022-12-24T17:58:55;19.03;;;11.83;;
64467;SDS011;50853;46.836;16.820;2022-12-24T18:01:22;16.70;;;11.25;;
64467;SDS011;50853;46.836;16.820;2022-12-24T18:03:50;13.93;;;10.48;;
64467;SDS011;50853;46.836;16.820;2022-12-24T18:06:17;15.55;;;10.85;;
64467;SDS011;50853;46.836;16.820;2022-12-24T18:08:45;16.02;;;10.75;;
64467;SDS011;50853;46.836;16.820;2022-12-24T18:11:13;16.10;;;11.50;;
64467;SDS011;50853;46.836;16.820;2022-12-24T18:13:42;15.40;;;11.07;;
64467;SDS011;50853;46.836;16.820;2022-12-24T18:18:47;14.88;;;11.50;;
64467;SDS011;50853;46.836;16.820;2022-12-24T18:21:14;12.77;;;10.10;;
64467;SDS011;50853;46.836;16.820;2022-12-24T18:23:41;15.93;;;10.05;;
64467;SDS011;50853;46.836;16.820;2022-12-24T18:26:09;16.88;;;10.52;;
64467;SDS011;50853;46.836;16.820;2022-12-24T18:28:36;18.00;;;11.35;;
64467;SDS011;50853;46.836;16.820;2022-12-24T18:31:05;15.27;;;10.95;;
64467;SDS011;50853;46.836;16.820;2022-12-24T18:33:32;14.00;;;10.82;;
64467;SDS011;50853;46.836;16.820;2022-12-24T18:36:00;15.45;;;10.52;;
64467;SDS011;50853;46.836;16.820;2022-12-24T18:38:26;14.73;;;11.10;;
64467;SDS011;50853;46.836;16.820;2022-12-24T18:40:53;14.23;;;9.98;;
64467;SDS011;50853;46.836;16.820;2022-12-24T18:43:20;18.20;;;10.63;;
64467;SDS011;50853;46.836;16.820;2022-12-24T18:45:47;17.43;;;11.17;;
64467;SDS011;50853;46.836;16.820;2022-12-24T18:48:13;14.52;;;10.38;;
64467;SDS011;50853;46.836;16.820;2022-12-24T18:50:39;14.30;;;10.03;;
64467;SDS011;50853;46.836;16.820;2022-12-24T18:53:05;13.35;;;9.95;;
64467;SDS011;50853;46.836;16.820;2022-12-24T18:55:35;15.52;;;10.05;;
64467;SDS011;50853;46.836;16.820;2022-12-24T18:58:02;15.88;;;10.60;;
64467;SDS011;50853;46.836;16.820;2022-12-24T19:00:28;14.10;;;10.30;;
64467;SDS011;50853;46.836;16.820;2022-12-24T19:02:54;13.02;;;9.98;;
64467;SDS011;50853;46.836;16.820;2022-12-24T19:05:20;12.13;;;9.43;;
64467;SDS011;50853;46.836;16.820;2022-12-24T19:07:46;13.20;;;9.93;;
64467;SDS011;50853;46.836;16.820;2022-12-24T19:10:15;12.90;;;10.07;;
64467;SDS011;50853;46.836;16.820;2022-12-24T19:12:41;14.90;;;11.80;;
64467;SDS011;50853;46.836;16.820;2022-12-24T19:15:07;22.67;;;11.20;;
64467;SDS011;50853;46.836;16.820;2022-12-24T19:17:33;16.92;;;11.43;;
64467;SDS011;50853;46.836;16.820;2022-12-24T19:19:59;14.17;;;10.30;;
64467;SDS011;50853;46.836;16.820;2022-12-24T19:22:25;19.23;;;10.13;;
64467;SDS011;50853;46.836;16.820;2022-12-24T19:24:54;26.92;;;12.00;;
64467;SDS011;50853;46.836;16.820;2022-12-24T19:27:20;17.30;;;11.70;;
64467;SDS011;50853;46.836;16.820;2022-12-24T19:29:46;17.70;;;12.20;;
64467;SDS011;50853;46.836;16.820;2022-12-24T19:32:12;15.90;;;10.80;;
64467;SDS011;50853;46.836;16.820;2022-12-24T19:34:37;21.03;;;11.03;;
64467;SDS011;50853;46.836;16.820;2022-12-24T19:37:05;17.80;;;11.48;;
64467;SDS011;50853;46.836;16.820;2022-12-24T19:39:31;15.93;;;11.17;;
64467;SDS011;50853;46.836;16.820;2022-12-24T19:41:58;16.00;;;11.00;;
64467;SDS011;50853;46.836;16.820;2022-12-24T19:44:25;17.25;;;12.07;;
64467;SDS011;50853;46.836;16.820;2022-12-24T19:46:51;17.33;;;11.00;;
64467;SDS011;50853;46.836;16.820;2022-12-24T19:49:17;15.80;;;11.60;;
64467;SDS011;50853;46.836;16.820;2022-12-24T19:51:43;16.37;;;12.27;;
64467;SDS011;50853;46.836;16.820;2022-12-24T19:54:09;18.95;;;10.98;;
64467;SDS011;50853;46.836;16.820;2022-12-24T19:56:37;14.43;;;11.43;;
64467;SDS011;50853;46.836;16.820;2022-12-24T19:59:04;15.90;;;11.25;;
64467;SDS011;50853;46.836;16.820;2022-12-24T20:01:31;15.57;;;11.98;;
64467;SDS011;50853;46.836;16.820;2022-12-24T20:03:59;16.40;;;11.93;;
64467;SDS011;50853;46.836;16.820;2022-12-24T20:06:27;24.63;;;11.32;;
64467;SDS011;50853;46.836;16.820;2022-12-24T20:09:03;15.20;;;11.40;;
64467;SDS011;50853;46.836;16.820;2022-12-24T20:11:30;15.13;;;11.85;;
64467;SDS011;50853;46.836;16.820;2022-12-24T20:13:57;18.95;;;11.43;;
64467;SDS011;50853;46.836;16.820;2022-12-24T20:16:24;16.85;;;11.70;;
64467;SDS011;50853;46.836;16.820;2022-12-24T20:18:55;15.98;;;11.95;;
64467;SDS011;50853;46.836;16.820;2022-12-24T20:21:22;17.33;;;11.48;;
64467;SDS011;50853;46.836;16.820;2022-12-24T20:23:49;14.10;;;11.07;;
64467;SDS011;50853;46.836;16.820;2022-12-24T20:26:16;15.80;;;11.43;;
64467;SDS011;50853;46.836;16.820;2022-12-24T20:28:44;16.70;;;12.15;;
64467;SDS011;50853;46.836;16.820;2022-12-24T20:31:14;14.73;;;11.40;;
64467;SDS011;50853;46.836;16.820;2022-12-24T20:33:43;16.92;;;11.13;;
64467;SDS011;50853;46.836;16.820;2022-12-24T20:36:10;16.00;;;11.63;;
64467;SDS011;50853;46.836;16.820;2022-12-24T20:38:37;17.02;;;11.60;;
64467;SDS011;50853;46.836;16.820;2022-12-24T20:41:02;17.93;;;11.43;;
64467;SDS011;50853;46.836;16.820;2022-12-24T20:43:30;13.30;;;11.38;;
64467;SDS011;50853;46.836;16.820;2022-12-24T20:45:56;17.25;;;12.73;;
64467;SDS011;50853;46.836;16.820;2022-12-24T20:48:22;16.60;;;12.17;;
64467;SDS011;50853;46.836;16.820;2022-12-24T20:50:49;15.23;;;11.98;;
64467;SDS011;50853;46.836;16.820;2022-12-24T20:53:15;15.40;;;12.15;;
64467;SDS011;50853;46.836;16.820;2022-12-24T20:55:41;15.00;;;11.60;;
64467;SDS011;50853;46.836;16.820;2022-12-24T20:58:08;19.13;;;12.13;;
64467;SDS011;50853;46.836;16.820;2022-12-24T21:00:36;15.95;;;12.27;;
64467;SDS011;50853;46.836;16.820;2022-12-24T21:03:01;16.90;;;11.97;;
64467;SDS011;50853;46.836;16.820;2022-12-24T21:05:27;16.80;;;11.70;;
64467;SDS011;50853;46.836;16.820;2022-12-24T21:07:53;16.53;;;13.07;;
64467;SDS011;50853;46.836;16.820;2022-12-24T21:10:19;17.30;;;13.10;;
64467;SDS011;50853;46.836;16.820;2022-12-24T21:12:45;22.80;;;13.30;;
64467;SDS011;50853;46.836;16.820;2022-12-24T21:15:36;17.38;;;13.20;;
64467;SDS011;50853;46.836;16.820;2022-12-24T21:18:03;16.95;;;12.43;;
64467;SDS011;50853;46.836;16.820;2022-12-24T21:20:35;16.20;;;12.40;;
64467;SDS011;50853;46.836;16.820;2022-12-24T21:23:03;19.38;;;12.60;;
64467;SDS011;50853;46.836;16.820;2022-12-24T21:25:29;17.05;;;13.00;;
64467;SDS011;50853;46.836;16.820;2022-12-24T21:27:55;20.50;;;13.17;;
64467;SDS011;50853;46.836;16.820;2022-12-24T21:30:21;17.00;;;11.93;;
